CheckWX is a tool to help pilots better visualize weather data.  It is not intended as a substitute for an official pre-flight weather briefing.

03:21:04 UTC

KCPU METAR
Calaveras Co-Maury Rasmussen Field Airport
San Andreas, California, USA
Current

26 mins ago

KCPU 250255Z AUTO 33004KT 10SM SCT120 13/09 A3014 RMK AO2 T01250089
Observed
Jan-25 @ 02:55 UTC
Wind
  • 330° at 4 KTS
Visibility
10 SM
Flight Rules
VFR
Cloud Levels
  • Scattered at 12,000' AGL
Temperature
13°C / 55°F
Dewpoint
C / 48°F
Humidity
77%
Altimeter
30.14" Hg
Pressure
1020.62 hPa
Previous

46 mins ago

KCPU 250235Z AUTO 00000KT 10SM CLR 12/09 A3013 RMK AO2 T01230087
Observed
Jan-25 @ 02:35 UTC
Visibility
10 SM
Flight Rules
VFR
Cloud Levels
  • Clear skies
Temperature
12°C / 54°F
Dewpoint
C / 48°F
Humidity
82%
Altimeter
30.13" Hg
Pressure
1020.32 hPa
Previous

1 hour ago

KCPU 250215Z AUTO 34006KT 10SM CLR 13/09 A3013 RMK AO2 T01300088
Observed
Jan-25 @ 02:15 UTC
Wind
  • 340° at 6 KTS
Visibility
10 SM
Flight Rules
VFR
Cloud Levels
  • Clear skies
Temperature
13°C / 55°F
Dewpoint
C / 48°F
Humidity
77%
Altimeter
30.13" Hg
Pressure
1020.32 hPa